Terminal Aerodrome Forecast
Issued by NWS Sterling, VA

Current Version | Previous Version | Graphics & Text | Print | Product List | Glossary On
Versions: 1 2 3 4 5 6 7 8 9 10 11 12 13 14 15 16 17 18 19 20 21 22 23 24 25 26 27
000
FTUS41 KLWX 041142
TAFDCA
TAF
KDCA 041142Z 0412/0512 20005KT 5SM -SHRA BR BKN008 OVC060
     FM041600 VRB03KT 3SM -RA BR OVC040
     FM042100 02005KT 3SM -RA BR OVC015
     FM050700 36005KT 1SM -RAPL BR OVC008
     FM051100 34008KT 1SM -SNPL BR OVC006=

USA.gov is the U.S. government's official web portal to all federal, state and local government web resources and services.